Skip Navigation Links Skip Navigation Links

Current Weather

Republic, Farmingdale, N.Y.

For information only: do not use for flight planning or navigation.
Latest weather
Observation time Saturday, January 23, 2021 8:53 PM EST
Local time Saturday, January 23, 2021 10:04 PM EST
Flight conditions Visual Meteorological Conditions
Winds
Wind direction Northwest (320°)
Wind speed 15 mph
Wind gusting to 26 mph
Peak wind speed 31 mph, 8:42 PM
Peak wind direction Northwest (310°)
Visibility 10 mi.
Sky condition
Ceiling unlimited
Sky clear
Temperature 25°F
Dewpoint 5°F
Altimeter 30.14 in.Hg
Derived measurements
Relative humidity 42%
Wind chill 13°F
Density altitude -2465 ft.
Sea-level pressure 30.14 in.Hg
Remarks
Automated weather observing station with precipitation discriminator.
METAR KFRG 240153Z 32013G23KT 10SM CLR M04/M15 A3014 RMK AO2 PK WND 31027/0142 SLP208 T10391150

Settings

Location code

InnerDrive.Weather 4.0.6770.0 Release CLR 4.0.30319.42000
Copyright ©2018 Inner Drive Technology. All rights reserved. Portions Copyright ©1986-2018 David Braverman.

Find weather

Site navigation


Skip Navigation Links

Place info

Page info

PayPal - The safer, easier way to pay online!

Return home.

Copyright ©2021 Inner Drive Technology. Purveyors of fine, hand-crafted computer software. Page printed 2021-01-24T03:04:53 UTC.